createdAt,value
2024-02-29T00:00:10.883Z,0.97
2024-02-29T00:05:14.197Z,0.95
2024-02-29T00:10:17.507Z,0.91
2024-02-29T00:15:22.167Z,0.93
2024-02-29T00:20:25.317Z,0.84
2024-02-29T00:25:28.423Z,0.76
2024-02-29T00:30:32.955Z,0.69
2024-02-29T00:35:36.091Z,0.73
2024-02-29T00:40:39.565Z,0.71
2024-02-29T00:45:44.547Z,0.62
2024-02-29T00:50:47.892Z,0.65
2024-02-29T00:55:51.322Z,0.65
2024-02-29T01:00:56.687Z,0.60
2024-02-29T01:05:59.842Z,0.54
2024-02-29T01:11:04.655Z,0.48
2024-02-29T01:16:10.006Z,0.46
2024-02-29T01:21:13.335Z,0.43
2024-02-29T01:26:16.765Z,0.46
2024-02-29T01:31:21.760Z,0.48
2024-02-29T01:36:24.899Z,0.44
2024-02-29T01:41:28.026Z,0.37
2024-02-29T01:46:32.531Z,0.34
2024-02-29T01:51:36.346Z,0.28
2024-02-29T01:56:40.049Z,0.33
2024-02-29T02:01:44.565Z,0.33
2024-02-29T02:06:48.358Z,0.30
2024-02-29T02:11:51.458Z,0.27
2024-02-29T02:16:56.143Z,0.19
2024-02-29T02:22:00.735Z,0.20
2024-02-29T02:27:04.360Z,0.15
2024-02-29T02:32:07.816Z,0.15
2024-02-29T02:37:12.440Z,0.08
2024-02-29T02:42:15.571Z,0.03
2024-02-29T02:47:19.010Z,-0.02
2024-02-29T02:52:23.817Z,0.03
2024-02-29T02:57:27.168Z,0.05
2024-02-29T03:02:30.466Z,-0.06
2024-02-29T03:07:34.972Z,-0.13
2024-02-29T03:12:38.690Z,-0.14
2024-02-29T03:17:41.829Z,-0.23
2024-02-29T03:22:47.073Z,-0.40
2024-02-29T03:27:51.773Z,-0.50
2024-02-29T03:32:55.037Z,-0.55
2024-02-29T03:37:59.548Z,-0.60
2024-02-29T03:43:02.950Z,-0.66
2024-02-29T03:48:06.667Z,-0.70
2024-02-29T03:53:11.812Z,-0.74
2024-02-29T03:58:15.217Z,-0.82
2024-02-29T04:03:18.347Z,-0.87
2024-02-29T04:08:22.805Z,-0.86
2024-02-29T04:13:26.149Z,-0.80
2024-02-29T04:18:29.257Z,-0.71
2024-02-29T04:23:33.697Z,-0.59
2024-02-29T04:28:36.793Z,-0.58
2024-02-29T04:33:40.149Z,-0.65
2024-02-29T04:38:45.327Z,-0.76
2024-02-29T04:43:48.420Z,-0.78
2024-02-29T04:48:51.542Z,-0.76
2024-02-29T04:53:56.058Z,-0.73
2024-02-29T04:58:59.414Z,-0.71
2024-02-29T05:04:03.878Z,-0.75
2024-02-29T05:09:08.528Z,-0.78
2024-02-29T05:14:12.075Z,-0.82
2024-02-29T05:19:15.449Z,-0.81
2024-02-29T05:24:19.992Z,-0.81
2024-02-29T05:29:23.295Z,-0.81
2024-02-29T05:34:26.477Z,-0.84
2024-02-29T05:39:34.618Z,-0.89
2024-02-29T05:44:37.787Z,-0.88
2024-02-29T05:49:40.859Z,-0.85
2024-02-29T05:54:45.518Z,-0.80
2024-02-29T05:59:48.611Z,-0.70
2024-02-29T06:04:51.718Z,-0.69
2024-02-29T06:09:57.200Z,-0.58
2024-02-29T06:15:00.328Z,-0.45
2024-02-29T06:20:04.956Z,-0.27
2024-02-29T06:25:11.400Z,-0.14
2024-02-29T06:30:15.432Z,-0.20
2024-02-29T06:35:18.537Z,-0.22
2024-02-29T06:40:23.556Z,-0.14
2024-02-29T06:45:26.692Z,0.06
2024-02-29T06:50:30.286Z,0.13
2024-02-29T06:55:34.730Z,0.27
2024-02-29T07:00:38.949Z,0.40
2024-02-29T07:05:42.240Z,0.51
2024-02-29T07:10:46.781Z,0.65
2024-02-29T07:15:50.241Z,0.86
2024-02-29T07:20:53.411Z,1.11
2024-02-29T07:25:57.867Z,1.65
2024-02-29T07:31:02.440Z,2.23
2024-02-29T07:36:06.165Z,3.04
2024-02-29T07:41:10.643Z,3.83
2024-02-29T07:46:14.085Z,4.16
2024-02-29T07:51:19.223Z,4.25
2024-02-29T07:56:24.888Z,4.42
2024-02-29T08:01:29.668Z,4.75
2024-02-29T08:06:33.132Z,5.53
2024-02-29T08:11:37.624Z,5.51
2024-02-29T08:16:40.902Z,5.64
2024-02-29T08:21:44.068Z,5.79
2024-02-29T08:26:48.642Z,5.55
2024-02-29T08:31:51.956Z,6.36
2024-02-29T08:36:55.269Z,6.28
2024-02-29T08:41:59.689Z,6.55
2024-02-29T08:47:05.672Z,7.11
2024-02-29T08:52:09.652Z,7.14
2024-02-29T08:57:14.323Z,7.21
2024-02-29T09:02:17.931Z,7.27
2024-02-29T09:07:21.265Z,7.57
2024-02-29T09:12:25.769Z,8.01
2024-02-29T09:17:28.849Z,7.25
2024-02-29T09:22:31.980Z,6.96
2024-02-29T09:27:36.832Z,7.03
2024-02-29T09:32:40.640Z,7.24
2024-02-29T09:37:43.784Z,6.50
2024-02-29T09:42:49.096Z,6.68
2024-02-29T09:47:53.501Z,6.57
2024-02-29T09:52:56.966Z,6.65
2024-02-29T09:58:02.896Z,7.56
2024-02-29T10:03:07.437Z,8.82
2024-02-29T10:08:10.552Z,9.04
2024-02-29T10:13:15.043Z,8.48
2024-02-29T10:18:18.701Z,9.08
2024-02-29T10:23:22.067Z,9.51
2024-02-29T10:28:27.162Z,9.57
2024-02-29T10:33:30.736Z,10.17
2024-02-29T10:38:34.251Z,9.85
2024-02-29T10:43:40.793Z,9.64
2024-02-29T10:48:50.604Z,9.44
2024-02-29T10:54:05.671Z,8.93
2024-02-29T10:59:12.013Z,9.28
2024-02-29T11:04:16.541Z,9.80
2024-02-29T11:09:25.667Z,9.75
2024-02-29T11:14:36.874Z,9.87
2024-02-29T11:19:47.836Z,9.54
2024-02-29T11:24:56.854Z,10.09
2024-02-29T11:30:05.838Z,10.56
2024-02-29T11:35:09.780Z,10.55
2024-02-29T11:40:16.966Z,11.21
2024-02-29T11:45:23.596Z,11.25
2024-02-29T11:50:26.974Z,11.38
2024-02-29T11:55:31.940Z,11.76
2024-02-29T12:00:36.705Z,11.08
2024-02-29T12:05:40.357Z,10.85
2024-02-29T12:10:45.919Z,10.63
2024-02-29T12:15:55.491Z,11.16
2024-02-29T12:20:58.898Z,11.35
2024-02-29T12:26:10.240Z,11.20
2024-02-29T12:31:15.915Z,11.42
2024-02-29T12:36:19.995Z,11.47
2024-02-29T12:41:26.229Z,12.10
2024-02-29T12:46:30.703Z,12.30
2024-02-29T12:51:33.836Z,12.25
2024-02-29T12:56:38.362Z,12.49
2024-02-29T13:01:42.895Z,12.22
2024-02-29T13:06:46.401Z,11.55
2024-02-29T13:11:50.694Z,12.02
2024-02-29T13:16:55.194Z,11.67
2024-02-29T13:21:58.402Z,11.81
2024-02-29T13:27:01.559Z,12.12
2024-02-29T13:32:06.886Z,11.76
2024-02-29T13:37:10.826Z,11.75
2024-02-29T13:42:14.663Z,11.58
2024-02-29T13:47:19.171Z,11.74
2024-02-29T13:52:22.401Z,11.64
2024-02-29T13:57:25.610Z,11.68
2024-02-29T14:02:30.038Z,11.85
2024-02-29T14:07:34.056Z,11.75
2024-02-29T14:12:37.252Z,11.83
2024-02-29T14:17:41.890Z,11.85
2024-02-29T14:22:45.079Z,11.73
2024-02-29T14:27:48.452Z,11.57
2024-02-29T14:32:53.220Z,11.46
2024-02-29T14:37:56.397Z,11.47
2024-02-29T14:42:59.519Z,11.33
2024-02-29T14:48:04.721Z,11.25
2024-02-29T14:53:07.863Z,11.14
2024-02-29T14:58:11.097Z,11.02
2024-02-29T15:03:15.647Z,10.79
2024-02-29T15:08:19.957Z,10.65
2024-02-29T15:13:23.485Z,10.72
2024-02-29T15:18:28.043Z,10.66
2024-02-29T15:23:31.184Z,10.65
2024-02-29T15:28:36.164Z,10.62
2024-02-29T15:33:41.080Z,10.72
2024-02-29T15:38:44.679Z,10.66
2024-02-29T15:43:47.974Z,10.47
2024-02-29T15:48:52.639Z,10.22
2024-02-29T15:53:55.941Z,10.01
2024-02-29T15:58:59.131Z,9.84
2024-02-29T16:04:03.662Z,9.66
2024-02-29T16:09:06.857Z,9.47
2024-02-29T16:14:10.237Z,9.19
2024-02-29T16:19:16.836Z,8.77
2024-02-29T16:24:20.240Z,8.70
2024-02-29T16:29:23.343Z,8.53
2024-02-29T16:34:28.125Z,8.20
2024-02-29T16:39:31.304Z,7.89
2024-02-29T16:44:34.792Z,7.54
2024-02-29T16:49:41.492Z,7.29
2024-02-29T16:54:44.655Z,7.09
2024-02-29T16:59:47.868Z,6.82
2024-02-29T17:04:52.759Z,6.57
2024-02-29T17:09:59.995Z,6.25
2024-02-29T17:15:03.489Z,5.99
2024-02-29T17:20:09.199Z,5.76
2024-02-29T17:25:12.570Z,5.59
2024-02-29T17:30:16.663Z,5.43
2024-02-29T17:35:21.979Z,5.35
2024-02-29T17:40:25.180Z,5.29
2024-02-29T17:45:28.352Z,5.20
2024-02-29T17:50:32.815Z,5.10
2024-02-29T17:55:35.962Z,5.04
2024-02-29T18:00:41.081Z,4.95
2024-02-29T18:05:45.954Z,4.85
2024-02-29T18:10:50.348Z,4.78
2024-02-29T18:15:53.988Z,4.80
2024-02-29T18:20:58.512Z,4.75
2024-02-29T18:26:02.890Z,4.76
2024-02-29T18:31:06.739Z,4.63
2024-02-29T18:36:12.867Z,4.52
2024-02-29T18:41:16.326Z,4.41
2024-02-29T18:46:20.896Z,4.28
2024-02-29T18:51:25.740Z,4.15
2024-02-29T18:56:29.031Z,4.10
2024-02-29T19:01:32.484Z,4.06
2024-02-29T19:06:37.555Z,4.01
2024-02-29T19:11:41.052Z,3.92
2024-02-29T19:16:45.848Z,3.82
2024-02-29T19:21:50.607Z,3.70
2024-02-29T19:26:53.903Z,3.65
2024-02-29T19:31:57.441Z,3.54
2024-02-29T19:37:02.102Z,3.42
2024-02-29T19:42:05.591Z,3.33
2024-02-29T19:47:08.967Z,3.28
2024-02-29T19:52:13.474Z,3.26
2024-02-29T19:57:16.682Z,3.19
2024-02-29T20:02:20.555Z,3.11
2024-02-29T20:07:25.466Z,3.04
2024-02-29T20:12:28.741Z,2.95
2024-02-29T20:17:31.942Z,2.96
2024-02-29T20:22:36.964Z,3.02
2024-02-29T20:27:40.073Z,3.18
2024-02-29T20:32:43.840Z,3.42
2024-02-29T20:37:48.521Z,3.34
2024-02-29T20:42:51.995Z,3.28
2024-02-29T20:47:55.357Z,3.14
2024-02-29T20:53:00.591Z,3.13
2024-02-29T20:58:04.071Z,3.11
2024-02-29T21:03:10.002Z,3.06
2024-02-29T21:08:16.968Z,3.02
2024-02-29T21:13:22.201Z,2.98
2024-02-29T21:18:26.467Z,3.00
2024-02-29T21:23:31.544Z,3.12
2024-02-29T21:28:35.664Z,3.22
2024-02-29T21:33:38.799Z,3.48
2024-02-29T21:38:44.514Z,3.68
2024-02-29T21:43:48.032Z,4.03
2024-02-29T21:48:51.153Z,4.15
2024-02-29T21:53:55.875Z,4.13
2024-02-29T21:58:59.159Z,4.06
2024-02-29T22:04:02.620Z,3.97
2024-02-29T22:09:07.063Z,3.91
2024-02-29T22:14:10.211Z,3.82
2024-02-29T22:19:13.598Z,3.92
2024-02-29T22:24:18.132Z,4.12
2024-02-29T22:29:22.777Z,4.16
2024-02-29T22:34:25.997Z,4.19
2024-02-29T22:39:30.497Z,4.16
2024-02-29T22:44:34.322Z,4.14
2024-02-29T22:49:37.409Z,3.99
2024-02-29T22:54:41.876Z,3.77
2024-02-29T22:59:44.987Z,3.67
2024-02-29T23:04:48.097Z,3.63
2024-02-29T23:09:52.567Z,3.46
2024-02-29T23:14:55.680Z,3.44
2024-02-29T23:19:59.016Z,3.58
2024-02-29T23:25:04.586Z,3.61
2024-02-29T23:30:10.215Z,3.63
2024-02-29T23:35:13.332Z,3.88
2024-02-29T23:40:18.402Z,3.92
2024-02-29T23:45:22.242Z,4.14
2024-02-29T23:50:26.135Z,4.12
2024-02-29T23:55:30.830Z,4.19
